createdAt,value
2018-09-03T00:02:15.654Z,4.40
2018-09-03T00:04:44.117Z,7.53
2018-09-03T00:07:12.618Z,3.83
2018-09-03T00:09:42.528Z,4.67
2018-09-03T00:12:12.108Z,4.77
2018-09-03T00:14:40.929Z,4.97
2018-09-03T00:17:09.820Z,5.03
2018-09-03T00:19:38.451Z,5.33
2018-09-03T00:22:07.117Z,4.20
2018-09-03T00:24:35.729Z,4.93
2018-09-03T00:27:04.310Z,5.10
2018-09-03T00:29:32.839Z,3.93
2018-09-03T00:32:06.772Z,4.90
2018-09-03T00:34:40.430Z,4.50
2018-09-03T00:37:14.162Z,5.07
2018-09-03T00:39:47.933Z,7.23
2018-09-03T00:42:21.633Z,7.20
2018-09-03T00:44:55.339Z,6.17
2018-09-03T00:47:23.975Z,4.83
2018-09-03T00:49:52.498Z,4.97
2018-09-03T00:52:21.035Z,5.30
2018-09-03T00:54:49.557Z,4.43
2018-09-03T00:57:18.086Z,4.90
2018-09-03T00:59:46.717Z,4.23
2018-09-03T01:02:15.281Z,3.77
2018-09-03T01:04:43.809Z,4.53
2018-09-03T01:07:12.410Z,5.67
2018-09-03T01:09:40.919Z,7.23
2018-09-03T01:12:09.437Z,4.37
2018-09-03T01:14:37.920Z,4.67
2018-09-03T01:17:06.466Z,5.07
2018-09-03T01:19:34.945Z,5.07
2018-09-03T01:22:03.527Z,4.77
2018-09-03T01:24:32.026Z,4.70
2018-09-03T01:27:00.491Z,6.43
2018-09-03T01:29:29.000Z,4.37
2018-09-03T01:31:57.627Z,4.33
2018-09-03T01:34:27.217Z,4.37
2018-09-03T01:36:55.702Z,4.17
2018-09-03T01:39:24.221Z,4.13
2018-09-03T01:41:52.708Z,5.27
2018-09-03T01:44:21.191Z,4.70
2018-09-03T01:46:49.741Z,4.40
2018-09-03T01:49:18.223Z,5.60
2018-09-03T01:51:46.671Z,5.23
2018-09-03T01:54:15.182Z,4.73
2018-09-03T01:56:43.734Z,4.40
2018-09-03T01:59:12.301Z,4.03
2018-09-03T02:01:40.818Z,4.17
2018-09-03T02:04:09.437Z,5.47
2018-09-03T02:06:37.961Z,6.07
2018-09-03T02:09:10.199Z,4.20
2018-09-03T02:11:38.999Z,6.67
2018-09-03T02:14:07.768Z,5.37
2018-09-03T02:16:37.232Z,6.23
2018-09-03T02:19:06.048Z,4.70
2018-09-03T02:21:34.550Z,5.90
2018-09-03T02:24:03.086Z,4.77
2018-09-03T02:26:31.831Z,5.53
2018-09-03T02:29:00.470Z,5.00
2018-09-03T02:31:28.991Z,4.57
2018-09-03T02:33:57.581Z,4.50
2018-09-03T02:36:26.139Z,5.07
2018-09-03T02:38:54.666Z,5.90
2018-09-03T02:41:23.148Z,4.77
2018-09-03T02:43:51.668Z,6.00
2018-09-03T02:46:20.213Z,7.07
2018-09-03T02:48:48.768Z,5.40
2018-09-03T02:51:17.213Z,5.10
2018-09-03T02:53:45.768Z,8.37
2018-09-03T02:56:14.354Z,8.23
2018-09-03T02:58:42.998Z,4.93
2018-09-03T03:01:11.566Z,6.53
2018-09-03T03:03:40.178Z,7.50
2018-09-03T03:06:08.730Z,5.17
2018-09-03T03:08:37.291Z,5.50
2018-09-03T03:11:06.386Z,4.93
2018-09-03T03:13:34.881Z,4.90
2018-09-03T03:16:03.399Z,5.40
2018-09-03T03:18:31.926Z,5.40
2018-09-03T03:21:00.502Z,6.03
2018-09-03T03:23:29.029Z,5.03
2018-09-03T03:25:57.552Z,4.83
2018-09-03T03:28:26.187Z,7.43
2018-09-03T03:30:54.717Z,4.77
2018-09-03T03:33:23.233Z,5.30
2018-09-03T03:35:51.814Z,7.27
2018-09-03T03:38:20.309Z,7.83
2018-09-03T03:40:48.915Z,5.30
2018-09-03T03:43:17.595Z,5.40
2018-09-03T03:45:46.072Z,8.17
2018-09-03T03:48:14.538Z,5.00
2018-09-03T03:50:43.103Z,6.37
2018-09-03T03:53:11.629Z,6.97
2018-09-03T03:55:40.251Z,4.80
2018-09-03T03:58:08.807Z,6.10
2018-09-03T04:00:37.380Z,6.33
2018-09-03T04:03:05.887Z,7.50
2018-09-03T04:05:34.489Z,6.63
2018-09-03T04:08:07.013Z,6.07
2018-09-03T04:10:35.639Z,5.40
2018-09-03T04:13:04.960Z,5.57
2018-09-03T04:15:34.037Z,5.90
2018-09-03T04:18:03.309Z,5.97
2018-09-03T04:20:31.910Z,6.73
2018-09-03T04:23:00.459Z,5.80
2018-09-03T04:25:28.890Z,8.73
2018-09-03T04:27:57.430Z,7.27
2018-09-03T04:30:25.950Z,5.20
2018-09-03T04:32:55.023Z,5.17
2018-09-03T04:35:23.598Z,5.23
2018-09-03T04:37:52.103Z,6.23
2018-09-03T04:40:20.709Z,5.70
2018-09-03T04:42:49.215Z,6.40
2018-09-03T04:45:17.857Z,5.57
2018-09-03T04:47:46.488Z,5.97
2018-09-03T04:50:15.516Z,5.47
2018-09-03T04:52:44.278Z,5.23
2018-09-03T04:55:12.862Z,6.13
2018-09-03T04:57:41.353Z,6.67
2018-09-03T05:00:10.004Z,7.30
2018-09-03T05:02:38.630Z,6.27
2018-09-03T05:05:07.160Z,5.37
2018-09-03T05:07:35.700Z,5.77
2018-09-03T05:10:04.338Z,6.17
2018-09-03T05:12:32.931Z,7.03
2018-09-03T05:15:01.523Z,11.83
2018-09-03T05:17:30.092Z,6.97
2018-09-03T05:19:58.702Z,5.60
2018-09-03T05:22:27.494Z,6.03
2018-09-03T05:24:55.972Z,8.57
2018-09-03T05:27:24.606Z,6.33
2018-09-03T05:29:53.114Z,6.77
2018-09-03T05:32:21.734Z,6.63
2018-09-03T05:34:50.352Z,6.20
2018-09-03T05:37:18.963Z,6.30
2018-09-03T05:39:47.581Z,7.03
2018-09-03T05:42:16.178Z,6.90
2018-09-03T05:44:44.730Z,8.77
2018-09-03T05:47:13.308Z,7.93
2018-09-03T05:49:41.831Z,6.00
2018-09-03T05:52:10.411Z,9.43
2018-09-03T05:54:39.231Z,10.93
2018-09-03T05:57:07.783Z,6.70
2018-09-03T05:59:36.320Z,8.37
2018-09-03T06:02:04.894Z,9.20
2018-09-03T06:04:33.451Z,7.70
2018-09-03T06:07:02.019Z,8.50
2018-09-03T06:09:30.763Z,7.20
2018-09-03T06:11:59.240Z,7.53
2018-09-03T06:14:27.744Z,8.10
2018-09-03T06:16:56.278Z,8.23
2018-09-03T06:19:24.854Z,7.77
2018-09-03T06:21:53.407Z,8.60
2018-09-03T06:24:22.955Z,8.20
2018-09-03T06:26:51.496Z,10.07
2018-09-03T06:29:20.256Z,11.10
2018-09-03T06:31:48.884Z,9.13
2018-09-03T06:34:17.420Z,7.27
2018-09-03T06:36:45.978Z,9.67
2018-09-03T06:39:14.510Z,8.47
2018-09-03T06:41:43.027Z,9.20
2018-09-03T06:44:11.659Z,11.63
2018-09-03T06:46:40.223Z,9.00
2018-09-03T06:49:08.811Z,7.73
2018-09-03T06:51:37.506Z,9.37
2018-09-03T06:54:06.232Z,12.23
2018-09-03T06:56:34.979Z,8.77
2018-09-03T06:59:03.770Z,8.70
2018-09-03T07:01:33.315Z,10.33
2018-09-03T07:04:02.108Z,9.77
2018-09-03T07:06:30.873Z,13.43
2018-09-03T07:08:59.739Z,11.30
2018-09-03T07:11:28.372Z,9.43
2018-09-03T07:13:56.943Z,9.73
2018-09-03T07:16:25.663Z,9.07
2018-09-03T07:18:54.282Z,10.37
2018-09-03T07:21:22.895Z,9.87
2018-09-03T07:23:51.478Z,9.10
2018-09-03T07:26:20.158Z,9.43
2018-09-03T07:28:48.797Z,9.90
2018-09-03T07:31:17.486Z,11.63
2018-09-03T07:33:46.062Z,9.67
2018-09-03T07:36:14.579Z,9.47
2018-09-03T07:38:43.147Z,10.13
2018-09-03T07:41:12.076Z,10.23
2018-09-03T07:43:40.789Z,10.87
2018-09-03T07:46:09.459Z,10.20
2018-09-03T07:48:38.151Z,10.00
2018-09-03T07:51:06.803Z,11.10
2018-09-03T07:53:35.407Z,10.70
2018-09-03T07:56:03.931Z,14.17
2018-09-03T07:58:32.570Z,12.40
2018-09-03T08:01:01.416Z,13.33
2018-09-03T08:03:29.913Z,11.37
2018-09-03T08:05:58.467Z,13.03
2018-09-03T08:08:27.017Z,14.27
2018-09-03T08:10:55.490Z,16.73
2018-09-03T08:13:29.486Z,13.23
2018-09-03T08:15:58.121Z,12.00
2018-09-03T08:18:26.680Z,12.80
2018-09-03T08:20:55.335Z,12.97
2018-09-03T08:23:24.007Z,13.47
2018-09-03T08:25:52.535Z,14.00
2018-09-03T08:28:21.069Z,12.67
2018-09-03T08:30:49.690Z,15.80
2018-09-03T08:33:18.303Z,15.93
2018-09-03T08:35:46.838Z,13.20
2018-09-03T08:38:15.463Z,13.03
2018-09-03T08:40:44.106Z,15.20
2018-09-03T08:43:12.678Z,12.80
2018-09-03T08:45:41.395Z,13.27
2018-09-03T08:48:10.189Z,13.10
2018-09-03T08:50:39.083Z,13.40
2018-09-03T08:53:07.681Z,13.90
2018-09-03T08:55:36.400Z,16.60
2018-09-03T08:58:05.073Z,13.50
2018-09-03T09:00:33.718Z,15.40
2018-09-03T09:03:02.425Z,14.10
2018-09-03T09:05:30.976Z,14.20
2018-09-03T09:07:59.649Z,15.93
2018-09-03T09:10:28.259Z,14.57
2018-09-03T09:12:56.875Z,14.57
2018-09-03T09:15:25.523Z,15.57
2018-09-03T09:17:54.066Z,14.10
2018-09-03T09:20:22.717Z,13.80
2018-09-03T09:22:51.327Z,15.17
2018-09-03T09:25:19.922Z,12.63
2018-09-03T09:27:48.511Z,16.37
2018-09-03T09:30:17.187Z,13.27
2018-09-03T09:32:45.820Z,17.07
2018-09-03T09:35:14.442Z,17.07
2018-09-03T09:37:43.185Z,16.90
2018-09-03T09:40:11.835Z,13.70
2018-09-03T09:42:41.386Z,14.80
2018-09-03T09:45:10.828Z,13.60
2018-09-03T09:47:39.409Z,13.90
2018-09-03T09:50:08.121Z,12.67
2018-09-03T09:52:36.737Z,14.33
2018-09-03T09:55:05.542Z,14.57
2018-09-03T09:57:34.427Z,13.17
2018-09-03T10:00:03.209Z,13.53
2018-09-03T10:02:32.065Z,21.30
2018-09-03T10:05:00.653Z,14.47
2018-09-03T10:07:29.255Z,14.03
2018-09-03T10:09:57.942Z,15.10
2018-09-03T10:12:31.357Z,14.30
2018-09-03T10:15:01.243Z,12.70
2018-09-03T10:17:30.661Z,13.80
2018-09-03T10:19:59.926Z,13.10
2018-09-03T10:22:28.723Z,13.10
2018-09-03T10:24:57.331Z,13.37
2018-09-03T10:27:26.014Z,12.97
2018-09-03T10:29:54.705Z,14.00
2018-09-03T10:32:23.767Z,12.87
2018-09-03T10:34:52.369Z,13.70
2018-09-03T10:37:21.262Z,13.80
2018-09-03T10:39:49.876Z,14.93
2018-09-03T10:42:24.645Z,14.17
2018-09-03T10:44:53.352Z,14.53
2018-09-03T10:47:22.062Z,12.67
2018-09-03T10:55:24.374Z,14.63
2018-09-03T10:57:52.940Z,13.38
2018-09-03T11:00:21.563Z,12.82
2018-09-03T11:02:50.088Z,14.75
2018-09-03T11:05:18.552Z,14.60
2018-09-03T11:07:47.121Z,14.30
2018-09-03T11:10:15.626Z,14.68
2018-09-03T11:12:44.293Z,13.53
2018-09-03T11:15:12.971Z,13.90
2018-09-03T11:17:41.595Z,14.53
2018-09-03T11:20:13.614Z,14.00
2018-09-03T11:22:42.168Z,14.73
2018-09-03T11:25:10.719Z,14.63
2018-09-03T11:27:39.262Z,14.20
2018-09-03T11:30:08.509Z,13.45
2018-09-03T11:32:37.188Z,14.85
2018-09-03T11:35:05.828Z,13.80
2018-09-03T11:37:34.312Z,14.80
2018-09-03T11:40:02.899Z,14.35
2018-09-03T11:42:31.417Z,15.48
2018-09-03T11:45:00.059Z,13.65
2018-09-03T11:47:28.670Z,12.85
2018-09-03T11:49:57.500Z,13.80
2018-09-03T11:52:26.028Z,13.65
2018-09-03T11:54:54.524Z,13.83
2018-09-03T11:57:22.967Z,13.05
2018-09-03T11:59:51.481Z,12.45
2018-09-03T12:02:19.996Z,11.87
2018-09-03T12:04:48.464Z,14.87
2018-09-03T12:07:17.260Z,12.20
2018-09-03T12:09:45.861Z,14.10
2018-09-03T12:12:14.406Z,13.77
2018-09-03T12:14:45.218Z,17.17
2018-09-03T12:17:13.792Z,13.17
2018-09-03T12:19:42.673Z,17.13
2018-09-03T12:22:11.243Z,18.50
2018-09-03T12:24:39.905Z,15.50
2018-09-03T12:27:09.310Z,15.47
2018-09-03T12:29:37.795Z,13.17
2018-09-03T12:32:06.324Z,13.90
2018-09-03T12:34:34.800Z,15.13
2018-09-03T12:37:03.482Z,14.90
2018-09-03T12:39:31.866Z,14.70
2018-09-03T12:42:00.501Z,13.87
2018-09-03T12:44:29.007Z,16.30
2018-09-03T12:46:57.517Z,19.30
2018-09-03T12:49:26.041Z,15.60
2018-09-03T12:51:54.544Z,14.70
2018-09-03T12:54:23.204Z,16.30
2018-09-03T12:56:51.899Z,15.63
2018-09-03T12:59:20.366Z,15.80
2018-09-03T13:01:48.915Z,18.87
2018-09-03T13:04:17.392Z,16.17
2018-09-03T13:06:46.016Z,21.00
2018-09-03T13:09:14.555Z,15.47
2018-09-03T13:11:43.344Z,16.27
2018-09-03T13:14:12.010Z,15.97
2018-09-03T13:16:40.910Z,18.70
2018-09-03T13:19:09.413Z,18.77
2018-09-03T13:21:37.960Z,17.53
2018-09-03T13:24:06.558Z,15.67
2018-09-03T13:26:35.151Z,19.43
2018-09-03T13:29:03.661Z,14.67
2018-09-03T13:31:32.273Z,15.17
2018-09-03T13:34:01.054Z,15.43
2018-09-03T13:36:29.744Z,16.17
2018-09-03T13:38:58.267Z,18.77
2018-09-03T13:41:26.831Z,22.33
2018-09-03T13:43:55.629Z,17.10
2018-09-03T13:46:24.449Z,16.53
2018-09-03T13:48:53.148Z,16.40
2018-09-03T13:51:21.689Z,17.73
2018-09-03T13:53:50.442Z,17.90
2018-09-03T13:56:19.181Z,16.93
2018-09-03T13:58:47.910Z,17.20
2018-09-03T14:01:16.484Z,20.27
2018-09-03T14:03:44.940Z,17.67
2018-09-03T14:09:01.799Z,20.67
2018-09-03T14:11:30.354Z,24.23
2018-09-03T14:13:58.905Z,23.93
2018-09-03T14:16:27.609Z,24.47
2018-09-03T14:18:56.094Z,23.93
2018-09-03T14:21:24.788Z,30.47
2018-09-03T14:23:53.831Z,24.57
2018-09-03T14:26:22.626Z,24.03
2018-09-03T14:28:51.502Z,22.83
2018-09-03T14:31:20.770Z,26.20
2018-09-03T14:33:49.505Z,22.90
2018-09-03T14:36:18.578Z,22.77
2018-09-03T14:38:47.242Z,23.60
2018-09-03T14:41:15.902Z,27.37
2018-09-03T14:43:44.724Z,22.13
2018-09-03T14:46:13.378Z,23.40
2018-09-03T14:48:41.800Z,22.33
2018-09-03T14:51:10.624Z,23.73
2018-09-03T14:53:39.412Z,24.00
2018-09-03T14:56:08.348Z,24.57
2018-09-03T14:58:37.030Z,21.37
2018-09-03T15:01:05.607Z,24.37
2018-09-03T15:03:34.588Z,20.70
2018-09-03T15:06:03.271Z,26.07
2018-09-03T15:08:31.837Z,25.33
2018-09-03T15:11:00.789Z,24.83
2018-09-03T15:13:29.572Z,22.83
2018-09-03T15:15:58.956Z,27.23
2018-09-03T15:18:27.716Z,26.67
2018-09-03T15:20:56.298Z,24.93
2018-09-03T15:23:25.163Z,39.27
2018-09-03T15:25:53.765Z,88.60
2018-09-03T15:28:22.346Z,40.57
2018-09-03T15:30:51.075Z,30.57
2018-09-03T15:33:19.801Z,23.83
2018-09-03T15:35:48.398Z,24.37
2018-09-03T15:38:16.995Z,26.53
2018-09-03T15:40:45.594Z,26.33
2018-09-03T15:43:14.329Z,29.53
2018-09-03T15:45:43.053Z,32.30
2018-09-03T15:48:11.624Z,38.73
2018-09-03T15:50:40.406Z,33.47
2018-09-03T15:53:09.065Z,28.73
2018-09-03T15:55:37.712Z,30.30
2018-09-03T15:58:06.320Z,26.20
2018-09-03T16:00:34.985Z,29.97
2018-09-03T16:03:03.758Z,28.67
2018-09-03T16:05:32.590Z,29.33
2018-09-03T16:08:01.260Z,31.63
2018-09-03T16:10:29.882Z,30.43
2018-09-03T16:12:58.528Z,27.57
2018-09-03T16:15:27.061Z,27.97
2018-09-03T16:17:55.687Z,27.63
2018-09-03T16:20:24.294Z,26.57
2018-09-03T16:22:53.190Z,27.50
2018-09-03T16:25:21.887Z,28.23
2018-09-03T16:27:50.542Z,23.47
2018-09-03T16:30:19.140Z,24.83
2018-09-03T16:32:47.941Z,25.73
2018-09-03T16:35:16.511Z,26.43
2018-09-03T16:37:45.082Z,27.00
2018-09-03T16:40:13.777Z,26.83
2018-09-03T16:42:42.396Z,29.93
2018-09-03T16:45:10.998Z,29.13
2018-09-03T16:47:39.544Z,30.90
2018-09-03T16:50:08.077Z,27.37
2018-09-03T16:52:36.597Z,27.13
2018-09-03T16:55:05.211Z,27.00
2018-09-03T16:57:33.821Z,26.20
2018-09-03T17:00:02.425Z,29.00
2018-09-03T17:02:31.291Z,26.33
2018-09-03T17:04:59.937Z,24.00
2018-09-03T17:07:28.621Z,27.50
2018-09-03T17:09:57.297Z,26.43
2018-09-03T17:12:25.958Z,27.40
2018-09-03T17:14:54.473Z,24.77
2018-09-03T17:17:23.178Z,27.37
2018-09-03T17:19:51.765Z,30.07
2018-09-03T17:22:20.326Z,29.53
2018-09-03T17:24:48.833Z,27.23
2018-09-03T17:27:17.369Z,25.17
2018-09-03T17:29:45.940Z,27.57
2018-09-03T17:32:14.520Z,27.87
2018-09-03T17:34:43.028Z,28.53
2018-09-03T17:37:11.497Z,28.77
2018-09-03T17:39:39.990Z,27.73
2018-09-03T17:42:08.649Z,31.37
2018-09-03T17:44:37.255Z,27.83
2018-09-03T17:47:05.777Z,26.63
2018-09-03T17:49:34.519Z,27.37
2018-09-03T17:52:03.021Z,30.47
2018-09-03T17:54:31.681Z,29.23
2018-09-03T17:57:00.194Z,27.30
2018-09-03T17:59:28.735Z,30.07
2018-09-03T18:01:57.255Z,29.47
2018-09-03T18:04:25.793Z,32.00
2018-09-03T18:06:54.320Z,30.43
2018-09-03T18:09:22.836Z,27.73
2018-09-03T18:11:51.370Z,31.20
2018-09-03T18:14:19.928Z,32.03
2018-09-03T18:16:48.990Z,34.43
2018-09-03T18:19:17.595Z,31.90
2018-09-03T18:21:46.192Z,33.90
2018-09-03T18:24:14.701Z,33.87
2018-09-03T18:26:43.276Z,31.63
2018-09-03T18:29:12.017Z,30.80
2018-09-03T18:31:40.622Z,31.73
2018-09-03T18:34:09.089Z,33.87
2018-09-03T18:36:37.652Z,33.30
2018-09-03T18:39:06.905Z,33.27
2018-09-03T18:41:35.443Z,33.20
2018-09-03T18:44:04.055Z,36.40
2018-09-03T18:46:32.688Z,40.40
2018-09-03T18:49:01.711Z,32.70
2018-09-03T18:51:30.276Z,34.20
2018-09-03T18:53:58.829Z,33.43
2018-09-03T18:56:27.489Z,34.30
2018-09-03T18:58:56.048Z,33.17
2018-09-03T19:01:24.733Z,36.10
2018-09-03T19:03:53.318Z,33.90
2018-09-03T19:06:22.026Z,31.23
2018-09-03T19:08:50.699Z,31.97
2018-09-03T19:11:19.269Z,36.33
2018-09-03T19:13:47.851Z,34.33
2018-09-03T19:16:16.402Z,32.53
2018-09-03T19:18:45.121Z,37.07
2018-09-03T19:21:13.792Z,33.63
2018-09-03T19:23:42.339Z,36.80
2018-09-03T19:26:10.872Z,32.77
2018-09-03T19:28:39.540Z,50.90
2018-09-03T19:31:08.113Z,36.70
2018-09-03T19:33:36.729Z,33.50
2018-09-03T19:36:05.311Z,34.07
2018-09-03T19:38:33.857Z,34.80
2018-09-03T19:41:02.427Z,31.50
2018-09-03T19:43:31.060Z,32.93
2018-09-03T19:45:59.626Z,33.90
2018-09-03T19:48:28.311Z,33.10
2018-09-03T19:50:56.881Z,36.27
2018-09-03T19:53:25.518Z,32.50
2018-09-03T19:55:54.079Z,30.37
2018-09-03T19:58:22.746Z,30.53
2018-09-03T20:00:51.331Z,31.47
2018-09-03T20:03:19.999Z,32.30
2018-09-03T20:05:48.668Z,31.33
2018-09-03T20:08:17.590Z,29.87
2018-09-03T20:10:46.263Z,31.50
2018-09-03T20:13:15.344Z,28.17
2018-09-03T20:15:43.956Z,30.50
2018-09-03T20:18:15.049Z,29.37
2018-09-03T20:20:43.860Z,32.27
2018-09-03T20:23:12.551Z,28.90
2018-09-03T20:25:41.136Z,29.90
2018-09-03T20:28:09.901Z,32.43
2018-09-03T20:30:38.573Z,30.87
2018-09-03T20:33:07.078Z,32.40
2018-09-03T20:35:35.803Z,38.17
2018-09-03T20:38:04.454Z,34.87
2018-09-03T20:40:33.052Z,32.53
2018-09-03T20:43:01.865Z,34.40
2018-09-03T20:45:30.295Z,35.70
2018-09-03T20:47:59.074Z,32.03
2018-09-03T20:50:27.729Z,32.17
2018-09-03T20:52:56.341Z,33.63
2018-09-03T20:55:31.007Z,35.27
2018-09-03T20:57:59.656Z,33.40
2018-09-03T21:00:28.368Z,34.47
2018-09-03T21:02:58.128Z,36.57
2018-09-03T21:05:26.783Z,33.50
2018-09-03T21:07:55.418Z,32.93
2018-09-03T21:10:24.005Z,31.30
2018-09-03T21:12:52.512Z,28.83
2018-09-03T21:15:21.119Z,32.57
2018-09-03T21:17:49.729Z,33.90
2018-09-03T21:20:18.323Z,33.20
2018-09-03T21:22:46.910Z,29.67
2018-09-03T21:25:15.791Z,30.30
2018-09-03T21:27:44.405Z,30.63
2018-09-03T21:30:13.089Z,33.37
2018-09-03T21:32:42.017Z,38.17
2018-09-03T21:35:10.716Z,39.80
2018-09-03T21:37:39.346Z,40.83
2018-09-03T21:40:08.045Z,37.63
2018-09-03T21:42:36.660Z,39.10
2018-09-03T21:45:05.303Z,40.27
2018-09-03T21:47:34.081Z,39.13
2018-09-03T21:50:02.686Z,37.23
2018-09-03T21:52:31.395Z,37.27
2018-09-03T21:54:59.956Z,34.30
2018-09-03T21:57:28.546Z,34.73
2018-09-03T21:59:57.115Z,38.40
2018-09-03T22:02:25.672Z,36.97
2018-09-03T22:04:54.304Z,36.97
2018-09-03T22:07:22.951Z,37.00
2018-09-03T22:09:51.524Z,37.47
2018-09-03T22:12:20.075Z,38.27
2018-09-03T22:14:48.589Z,37.67
2018-09-03T22:17:17.221Z,38.77
2018-09-03T22:19:45.861Z,38.60
2018-09-03T22:22:14.432Z,37.30
2018-09-03T22:24:43.033Z,37.57
2018-09-03T22:27:11.678Z,40.57
2018-09-03T22:29:40.289Z,38.63
2018-09-03T22:32:09.002Z,40.23
2018-09-03T22:34:37.645Z,38.87
2018-09-03T22:37:06.253Z,39.93
2018-09-03T22:39:34.775Z,43.50
2018-09-03T22:42:03.399Z,40.30
2018-09-03T22:44:32.145Z,39.30
2018-09-03T22:47:00.862Z,46.73
2018-09-03T22:49:29.470Z,45.57
2018-09-03T22:51:58.019Z,49.83
2018-09-03T22:54:26.654Z,46.13
2018-09-03T22:56:55.321Z,43.43
2018-09-03T22:59:23.925Z,43.63
2018-09-03T23:01:52.490Z,45.47
2018-09-03T23:04:21.079Z,45.47
2018-09-03T23:06:49.628Z,44.73
2018-09-03T23:09:18.157Z,44.37
2018-09-03T23:11:46.633Z,43.17
2018-09-03T23:14:15.157Z,43.87
2018-09-03T23:16:43.654Z,45.60
2018-09-03T23:19:12.192Z,43.03
2018-09-03T23:21:40.722Z,43.07
2018-09-03T23:24:09.262Z,45.47
2018-09-03T23:26:37.816Z,47.53
2018-09-03T23:29:06.350Z,44.00
2018-09-03T23:31:34.897Z,44.33
2018-09-03T23:34:03.557Z,46.20
2018-09-03T23:36:32.095Z,45.30
2018-09-03T23:39:00.820Z,48.33
2018-09-03T23:41:29.410Z,52.77
2018-09-03T23:43:57.882Z,49.70
2018-09-03T23:46:26.501Z,53.17
2018-09-03T23:48:55.004Z,48.70
2018-09-03T23:51:23.560Z,53.40
2018-09-03T23:53:52.142Z,51.17
2018-09-03T23:56:20.737Z,47.50
2018-09-03T23:58:49.313Z,45.97
